createdAt,value
2018-10-18T00:02:12.791Z,15.10
2018-10-18T00:04:40.478Z,15.50
2018-10-18T00:07:08.201Z,15.30
2018-10-18T00:09:35.892Z,15.50
2018-10-18T00:12:03.850Z,15.40
2018-10-18T00:14:31.556Z,15.10
2018-10-18T00:16:59.317Z,15.10
2018-10-18T00:19:27.021Z,15.10
2018-10-18T00:21:54.798Z,15.00
2018-10-18T00:24:22.522Z,15.00
2018-10-18T00:26:50.310Z,15.00
2018-10-18T00:29:18.030Z,15.00
2018-10-18T00:31:45.757Z,15.00
2018-10-18T00:34:13.440Z,14.80
2018-10-18T00:36:41.144Z,14.80
2018-10-18T00:39:11.154Z,15.00
2018-10-18T00:41:38.895Z,15.00
2018-10-18T00:44:07.190Z,15.00
2018-10-18T00:46:34.934Z,14.80
2018-10-18T00:49:02.670Z,14.90
2018-10-18T00:51:30.364Z,14.80
2018-10-18T00:53:58.103Z,14.80
2018-10-18T00:56:25.801Z,14.80
2018-10-18T00:58:53.537Z,14.70
2018-10-18T01:01:21.301Z,14.90
2018-10-18T01:03:49.225Z,15.00
2018-10-18T01:06:17.396Z,14.80
2018-10-18T01:08:45.029Z,14.90
2018-10-18T01:11:12.745Z,14.90
2018-10-18T01:13:40.476Z,15.00
2018-10-18T01:16:08.204Z,14.90
2018-10-18T01:18:35.982Z,14.80
2018-10-18T01:21:03.769Z,14.40
2018-10-18T01:23:31.472Z,14.80
2018-10-18T01:25:59.213Z,14.80
2018-10-18T01:28:26.896Z,14.60
2018-10-18T01:30:54.645Z,14.60
2018-10-18T01:33:22.337Z,14.40
2018-10-18T01:35:50.038Z,14.40
2018-10-18T01:38:17.761Z,14.80
2018-10-18T01:40:45.476Z,14.40
2018-10-18T01:43:13.201Z,14.80
2018-10-18T01:45:40.929Z,14.70
2018-10-18T01:48:08.832Z,14.80
2018-10-18T01:50:36.472Z,14.70
2018-10-18T01:53:04.568Z,14.70
2018-10-18T01:55:32.277Z,14.70
2018-10-18T01:58:00.009Z,14.50
2018-10-18T02:00:27.722Z,14.80
2018-10-18T02:02:55.433Z,14.80
2018-10-18T02:05:23.112Z,14.80
2018-10-18T02:10:24.777Z,14.90
2018-10-18T02:12:52.465Z,14.80
2018-10-18T02:15:20.196Z,14.70
2018-10-18T02:17:47.888Z,14.90
2018-10-18T02:20:15.603Z,14.80
2018-10-18T02:22:43.328Z,14.70
2018-10-18T02:25:11.114Z,14.80
2018-10-18T02:27:38.796Z,14.80
2018-10-18T02:30:06.666Z,14.90
2018-10-18T02:32:34.296Z,14.80
2018-10-18T02:35:02.043Z,14.90
2018-10-18T02:37:29.769Z,14.90
2018-10-18T02:39:57.475Z,15.10
2018-10-18T02:42:25.208Z,15.00
2018-10-18T02:44:52.912Z,14.90
2018-10-18T02:47:20.633Z,15.20
2018-10-18T02:49:48.329Z,15.00
2018-10-18T02:52:16.096Z,15.40
2018-10-18T02:54:43.808Z,15.30
2018-10-18T02:57:11.589Z,15.40
2018-10-18T02:59:39.491Z,15.50
2018-10-18T03:02:07.746Z,15.30
2018-10-18T03:04:35.462Z,15.60
2018-10-18T03:07:03.247Z,15.60
2018-10-18T03:09:30.981Z,15.40
2018-10-18T03:11:58.732Z,15.60
2018-10-18T03:14:26.417Z,15.50
2018-10-18T03:16:54.109Z,15.60
2018-10-18T03:19:21.839Z,15.40
2018-10-18T03:21:49.551Z,15.50
2018-10-18T03:24:17.357Z,15.90
2018-10-18T03:26:45.070Z,15.80
2018-10-18T03:29:12.752Z,15.40
2018-10-18T03:31:40.461Z,15.50
2018-10-18T03:34:08.165Z,15.90
2018-10-18T03:36:35.908Z,15.80
2018-10-18T03:39:06.601Z,16.10
2018-10-18T03:41:34.394Z,16.10
2018-10-18T03:44:02.006Z,15.90
2018-10-18T03:46:29.739Z,16.10
2018-10-18T03:48:57.406Z,16.20
2018-10-18T03:51:25.133Z,15.80
2018-10-18T03:53:52.880Z,16.10
2018-10-18T03:56:20.569Z,15.60
2018-10-18T03:58:48.284Z,15.50
2018-10-18T04:01:15.981Z,15.10
2018-10-18T04:03:43.712Z,15.50
2018-10-18T04:06:11.512Z,15.50
2018-10-18T04:08:39.173Z,15.30
2018-10-18T04:11:06.905Z,15.30
2018-10-18T04:13:34.610Z,15.40
2018-10-18T04:16:02.335Z,15.30
2018-10-18T04:18:30.046Z,15.40
2018-10-18T04:20:57.745Z,15.40
2018-10-18T04:23:29.729Z,15.40
2018-10-18T04:25:57.444Z,15.40
2018-10-18T04:28:25.139Z,14.80
2018-10-18T04:30:52.897Z,15.00
2018-10-18T04:33:20.593Z,15.40
2018-10-18T04:35:48.280Z,14.90
2018-10-18T04:38:15.965Z,14.80
2018-10-18T04:40:43.690Z,14.90
2018-10-18T04:43:11.406Z,15.00
2018-10-18T04:45:39.496Z,14.80
2018-10-18T04:48:07.394Z,14.70
2018-10-18T04:50:34.930Z,14.40
2018-10-18T04:53:02.648Z,14.80
2018-10-18T04:55:30.332Z,14.40
2018-10-18T04:57:58.080Z,14.40
2018-10-18T05:00:25.768Z,14.50
2018-10-18T05:02:53.476Z,14.30
2018-10-18T05:05:32.592Z,14.30
2018-10-18T05:08:00.293Z,14.30
2018-10-18T05:10:27.994Z,14.40
2018-10-18T05:12:55.727Z,14.30
2018-10-18T05:15:23.421Z,14.50
2018-10-18T05:17:51.199Z,14.30
2018-10-18T05:20:18.888Z,14.30
2018-10-18T05:22:46.568Z,14.30
2018-10-18T05:25:14.374Z,14.30
2018-10-18T05:27:42.029Z,13.90
2018-10-18T05:30:09.717Z,13.80
2018-10-18T05:32:37.401Z,14.10
2018-10-18T05:35:05.489Z,14.00
2018-10-18T05:37:33.221Z,13.80
2018-10-18T05:40:00.924Z,13.90
2018-10-18T05:42:28.637Z,13.90
2018-10-18T05:44:56.354Z,13.90
2018-10-18T05:47:24.197Z,13.80
2018-10-18T05:49:51.804Z,13.80
2018-10-18T05:52:19.489Z,13.90
2018-10-18T05:54:47.229Z,13.90
2018-10-18T05:57:14.964Z,13.90
2018-10-18T05:59:42.660Z,13.80
2018-10-18T06:02:10.412Z,14.30
2018-10-18T06:04:38.126Z,13.80
2018-10-18T06:07:05.900Z,13.90
2018-10-18T06:09:34.486Z,13.90
2018-10-18T06:12:02.466Z,13.90
2018-10-18T06:14:30.398Z,14.00
2018-10-18T06:16:58.555Z,13.90
2018-10-18T06:19:26.276Z,14.30
2018-10-18T06:21:54.070Z,13.90
2018-10-18T06:24:21.777Z,14.30
2018-10-18T06:26:49.505Z,14.40
2018-10-18T06:29:17.281Z,14.30
2018-10-18T06:31:44.991Z,14.30
2018-10-18T06:34:12.726Z,14.40
2018-10-18T06:36:40.432Z,14.30
2018-10-18T06:39:09.739Z,14.40
2018-10-18T06:41:38.269Z,14.20
2018-10-18T06:44:06.003Z,14.30
2018-10-18T06:46:33.797Z,14.40
2018-10-18T06:49:01.616Z,14.40
2018-10-18T06:51:29.276Z,14.50
2018-10-18T06:53:57.043Z,14.30
2018-10-18T06:56:24.780Z,14.80
2018-10-18T06:58:52.509Z,14.50
2018-10-18T07:01:20.245Z,15.00
2018-10-18T07:03:47.972Z,15.30
2018-10-18T07:06:15.781Z,15.30
2018-10-18T07:08:43.478Z,15.60
2018-10-18T07:11:11.264Z,15.00
2018-10-18T07:13:38.976Z,15.40
2018-10-18T07:16:06.716Z,15.60
2018-10-18T07:18:34.481Z,15.40
2018-10-18T07:21:02.222Z,16.00
2018-10-18T07:23:29.931Z,16.20
2018-10-18T07:25:57.657Z,16.20
2018-10-18T07:28:25.364Z,16.20
2018-10-18T07:30:53.095Z,16.10
2018-10-18T07:33:20.833Z,16.20
2018-10-18T07:35:48.557Z,16.20
2018-10-18T07:38:16.305Z,16.60
2018-10-18T07:40:44.053Z,16.30
2018-10-18T07:43:11.797Z,16.20
2018-10-18T07:45:39.536Z,16.80
2018-10-18T07:48:07.986Z,16.80
2018-10-18T07:50:35.722Z,16.70
2018-10-18T07:53:03.489Z,16.60
2018-10-18T07:55:31.192Z,16.60
2018-10-18T07:57:58.962Z,17.00
2018-10-18T08:00:26.695Z,16.90
2018-10-18T08:02:54.437Z,16.90
2018-10-18T08:05:22.145Z,17.30
2018-10-18T08:07:49.889Z,17.60
2018-10-18T08:10:18.452Z,17.50
2018-10-18T08:12:46.172Z,17.70
2018-10-18T08:15:15.168Z,17.90
2018-10-18T08:17:43.548Z,17.80
2018-10-18T08:20:11.944Z,18.10
2018-10-18T08:22:40.071Z,18.10
2018-10-18T08:25:07.893Z,18.20
2018-10-18T08:27:36.044Z,18.20
2018-10-18T08:30:04.558Z,17.90
2018-10-18T08:32:32.277Z,18.20
2018-10-18T08:35:00.035Z,18.30
2018-10-18T08:37:27.780Z,18.30
2018-10-18T08:39:55.909Z,18.20
2018-10-18T08:42:23.645Z,18.00
2018-10-18T08:44:51.398Z,18.10
2018-10-18T08:47:19.104Z,18.20
2018-10-18T08:49:46.884Z,17.80
2018-10-18T08:52:14.600Z,18.30
2018-10-18T08:54:42.308Z,17.90
2018-10-18T08:57:10.080Z,18.30
2018-10-18T08:59:37.777Z,17.70
2018-10-18T09:02:05.574Z,17.80
2018-10-18T09:04:33.276Z,17.90
2018-10-18T09:07:01.026Z,17.90
2018-10-18T09:09:28.733Z,17.70
2018-10-18T09:11:56.451Z,18.00
2018-10-18T09:14:24.152Z,17.60
2018-10-18T09:16:51.886Z,18.00
2018-10-18T09:19:19.589Z,17.80
2018-10-18T09:21:47.283Z,17.70
2018-10-18T09:24:15.006Z,17.80
2018-10-18T09:26:42.708Z,17.30
2018-10-18T09:29:10.440Z,18.00
2018-10-18T09:31:38.141Z,17.70
2018-10-18T09:34:05.922Z,17.70
2018-10-18T09:36:33.648Z,17.80
2018-10-18T09:39:01.378Z,17.60
2018-10-18T09:41:29.109Z,17.80
2018-10-18T09:43:57.678Z,18.20
2018-10-18T09:46:25.858Z,17.90
2018-10-18T09:48:53.645Z,17.30
2018-10-18T09:51:21.373Z,17.60
2018-10-18T09:53:49.072Z,17.70
2018-10-18T09:56:16.914Z,17.90
2018-10-18T09:58:44.574Z,18.00
2018-10-18T10:01:17.849Z,17.40
2018-10-18T10:03:45.485Z,17.90
2018-10-18T10:06:13.212Z,17.90
2018-10-18T10:08:40.920Z,18.00
2018-10-18T10:11:08.666Z,17.90
2018-10-18T10:13:36.408Z,17.90
2018-10-18T10:16:04.171Z,17.80
2018-10-18T10:18:31.882Z,18.30
2018-10-18T10:20:59.695Z,18.10
2018-10-18T10:23:28.048Z,17.90
2018-10-18T10:25:55.761Z,18.10
2018-10-18T10:28:23.489Z,18.40
2018-10-18T10:30:51.197Z,18.20
2018-10-18T10:33:19.016Z,18.20
2018-10-18T10:35:46.842Z,18.20
2018-10-18T10:38:14.506Z,18.60
2018-10-18T10:40:42.221Z,18.60
2018-10-18T10:43:09.940Z,18.50
2018-10-18T10:45:37.743Z,18.60
2018-10-18T10:48:05.735Z,18.90
2018-10-18T10:50:33.441Z,19.20
2018-10-18T10:53:01.191Z,18.70
2018-10-18T10:55:28.896Z,19.30
2018-10-18T10:57:56.723Z,18.90
2018-10-18T11:00:35.590Z,19.20
2018-10-18T11:03:03.471Z,19.20
2018-10-18T11:05:31.116Z,19.40
2018-10-18T11:07:58.854Z,19.20
2018-10-18T11:10:26.618Z,19.40
2018-10-18T11:12:54.367Z,19.60
2018-10-18T11:15:22.221Z,20.40
2018-10-18T11:17:49.884Z,22.70
2018-10-18T11:20:17.699Z,24.60
2018-10-18T11:22:45.422Z,26.20
2018-10-18T11:25:13.173Z,27.80
2018-10-18T11:27:40.933Z,28.80
2018-10-18T11:30:08.732Z,27.60
2018-10-18T11:32:36.416Z,26.90
2018-10-18T11:35:04.489Z,26.60
2018-10-18T11:37:32.268Z,25.10
2018-10-18T11:40:00.009Z,25.40
2018-10-18T11:42:27.798Z,26.30
2018-10-18T11:44:55.517Z,25.70
2018-10-18T11:47:23.294Z,26.60
2018-10-18T11:49:51.082Z,25.70
2018-10-18T11:52:18.785Z,24.00
2018-10-18T11:54:46.549Z,22.90
2018-10-18T11:57:14.345Z,21.70
2018-10-18T11:59:42.073Z,21.50
2018-10-18T12:02:09.839Z,20.90
2018-10-18T12:04:37.559Z,20.80
2018-10-18T12:07:05.683Z,20.50
2018-10-18T12:09:33.436Z,20.70
2018-10-18T12:12:01.165Z,21.10
2018-10-18T12:14:28.876Z,20.60
2018-10-18T12:16:56.705Z,20.80
2018-10-18T12:19:24.402Z,21.20
2018-10-18T12:21:52.116Z,20.80
2018-10-18T12:24:19.861Z,21.00
2018-10-18T12:26:47.614Z,20.60
2018-10-18T12:29:15.394Z,21.10
2018-10-18T12:31:43.076Z,21.40
2018-10-18T12:34:10.823Z,21.20
2018-10-18T12:36:38.575Z,21.00
2018-10-18T12:39:08.047Z,21.10
2018-10-18T12:41:35.844Z,21.60
2018-10-18T12:44:03.643Z,22.00
2018-10-18T12:46:31.331Z,21.70
2018-10-18T12:48:59.074Z,21.90
2018-10-18T12:51:26.792Z,22.00
2018-10-18T12:53:54.551Z,21.80
2018-10-18T12:56:22.298Z,21.20
2018-10-18T12:58:50.070Z,21.20
2018-10-18T13:01:17.812Z,20.80
2018-10-18T13:03:45.534Z,20.80
2018-10-18T13:06:13.377Z,20.60
2018-10-18T13:08:41.037Z,21.20
2018-10-18T13:11:08.778Z,20.70
2018-10-18T13:13:36.484Z,20.40
2018-10-18T13:16:04.277Z,20.50
2018-10-18T13:18:32.011Z,20.80
2018-10-18T13:20:59.778Z,20.90
2018-10-18T13:23:27.579Z,21.10
2018-10-18T13:25:55.323Z,21.50
2018-10-18T13:28:23.093Z,22.50
2018-10-18T13:30:50.837Z,22.70
2018-10-18T13:33:18.600Z,22.70
2018-10-18T13:35:46.331Z,22.10
2018-10-18T13:38:14.259Z,22.00
2018-10-18T13:40:41.929Z,21.40
2018-10-18T13:43:09.628Z,21.00
2018-10-18T13:45:37.351Z,20.40
2018-10-18T13:48:05.414Z,20.10
2018-10-18T13:50:33.047Z,20.30
2018-10-18T13:53:00.799Z,20.00
2018-10-18T13:55:28.609Z,20.00
2018-10-18T13:57:56.346Z,19.90
2018-10-18T14:00:28.485Z,20.20
2018-10-18T14:02:56.433Z,20.10
2018-10-18T14:05:24.547Z,20.40
2018-10-18T14:07:53.236Z,21.30
2018-10-18T14:10:20.970Z,21.50
2018-10-18T14:12:49.106Z,22.30
2018-10-18T14:15:16.944Z,22.80
2018-10-18T14:17:44.881Z,22.50
2018-10-18T14:20:12.705Z,22.50
2018-10-18T14:22:40.810Z,22.10
2018-10-18T14:25:09.113Z,22.20
2018-10-18T14:27:36.915Z,21.70
2018-10-18T14:30:06.346Z,21.00
2018-10-18T14:32:34.037Z,20.50
2018-10-18T14:35:01.810Z,20.50
2018-10-18T14:37:29.530Z,20.20
2018-10-18T14:39:57.262Z,20.40
2018-10-18T14:42:25.029Z,21.10
2018-10-18T14:44:52.822Z,21.30
2018-10-18T14:47:22.149Z,21.50
2018-10-18T14:49:50.037Z,22.10
2018-10-18T14:52:17.855Z,21.40
2018-10-18T14:54:45.817Z,21.20
2018-10-18T14:57:14.325Z,21.40
2018-10-18T14:59:42.484Z,21.60
2018-10-18T15:02:10.271Z,21.80
2018-10-18T15:04:38.070Z,21.10
2018-10-18T15:07:06.199Z,21.80
2018-10-18T15:09:34.033Z,21.60
2018-10-18T15:12:01.782Z,20.90
2018-10-18T15:14:29.538Z,20.30
2018-10-18T15:16:57.289Z,20.10
2018-10-18T15:19:25.185Z,20.10
2018-10-18T15:21:52.928Z,20.50
2018-10-18T15:24:20.668Z,20.30
2018-10-18T15:26:48.422Z,19.90
2018-10-18T15:29:16.226Z,19.80
2018-10-18T15:31:43.940Z,19.60
2018-10-18T15:34:11.684Z,19.30
2018-10-18T15:36:39.406Z,18.80
2018-10-18T15:39:08.785Z,18.70
2018-10-18T15:41:37.243Z,19.10
2018-10-18T15:44:05.002Z,19.10
2018-10-18T15:46:32.760Z,18.70
2018-10-18T15:49:00.497Z,18.50
2018-10-18T15:51:28.224Z,18.30
2018-10-18T15:53:55.941Z,18.40
2018-10-18T15:56:23.725Z,18.30
2018-10-18T15:58:51.425Z,18.10
2018-10-18T16:01:19.169Z,18.10
2018-10-18T16:03:46.885Z,18.20
2018-10-18T16:06:14.697Z,18.00
2018-10-18T16:08:42.579Z,18.20
2018-10-18T16:11:10.222Z,17.80
2018-10-18T16:13:38.067Z,17.80
2018-10-18T16:16:06.352Z,17.40
2018-10-18T16:18:34.125Z,17.80
2018-10-18T16:21:02.093Z,18.00
2018-10-18T16:23:29.852Z,17.60
2018-10-18T16:25:57.598Z,17.50
2018-10-18T16:28:25.384Z,17.60
2018-10-18T16:30:53.088Z,17.60
2018-10-18T16:33:21.053Z,17.50
2018-10-18T16:35:48.793Z,17.40
2018-10-18T16:38:16.645Z,17.20
2018-10-18T16:40:44.444Z,17.40
2018-10-18T16:43:12.676Z,17.30
2018-10-18T16:45:40.448Z,17.40
2018-10-18T16:48:08.680Z,17.00
2018-10-18T16:50:36.365Z,17.00
2018-10-18T16:53:04.769Z,16.70
2018-10-18T16:55:32.523Z,17.20
2018-10-18T16:58:00.277Z,16.70
2018-10-18T17:00:27.995Z,16.70
2018-10-18T17:02:55.705Z,16.70
2018-10-18T17:05:23.480Z,16.70
2018-10-18T17:07:51.297Z,16.60
2018-10-18T17:10:19.086Z,16.70
2018-10-18T17:12:46.740Z,16.70
2018-10-18T17:15:14.449Z,16.40
2018-10-18T17:17:42.252Z,16.70
2018-10-18T17:20:10.051Z,16.70
2018-10-18T17:22:37.945Z,16.60
2018-10-18T17:25:06.038Z,16.70
2018-10-18T17:27:33.930Z,16.30
2018-10-18T17:30:01.639Z,16.20
2018-10-18T17:32:29.360Z,16.30
2018-10-18T17:34:57.133Z,16.20
2018-10-18T17:37:24.838Z,16.20
2018-10-18T17:39:52.628Z,16.30
2018-10-18T17:42:20.378Z,16.60
2018-10-18T17:44:48.150Z,16.30
2018-10-18T17:47:15.912Z,16.30
2018-10-18T17:49:43.641Z,16.10
2018-10-18T17:52:11.431Z,16.20
2018-10-18T17:54:39.077Z,16.20
2018-10-18T17:57:06.833Z,16.00
2018-10-18T17:59:34.606Z,16.20
2018-10-18T18:02:02.388Z,16.00
2018-10-18T18:04:30.105Z,15.60
2018-10-18T18:06:57.949Z,16.00
2018-10-18T18:09:25.681Z,15.60
2018-10-18T18:11:53.398Z,16.10
2018-10-18T18:14:21.104Z,16.10
2018-10-18T18:16:48.855Z,15.50
2018-10-18T18:19:16.573Z,15.80
2018-10-18T18:21:44.319Z,15.50
2018-10-18T18:24:12.048Z,15.70
2018-10-18T18:26:45.345Z,15.50
2018-10-18T18:29:07.513Z,15.40
2018-10-18T18:31:35.233Z,15.40
2018-10-18T18:34:03.242Z,15.40
2018-10-18T18:36:30.969Z,15.50
2018-10-18T18:38:58.732Z,15.40
2018-10-18T18:41:26.433Z,15.40
2018-10-18T18:43:54.161Z,15.30
2018-10-18T18:46:21.858Z,15.40
2018-10-18T18:48:49.560Z,15.40
2018-10-18T18:51:17.376Z,14.90
2018-10-18T18:53:45.017Z,15.40
2018-10-18T18:56:12.733Z,14.90
2018-10-18T18:58:40.458Z,14.90
2018-10-18T19:01:08.164Z,14.80
2018-10-18T19:03:35.854Z,14.90
2018-10-18T19:06:03.576Z,14.80
2018-10-18T19:08:31.353Z,14.90
2018-10-18T19:10:59.074Z,15.00
2018-10-18T19:13:26.869Z,14.90
2018-10-18T19:15:54.560Z,14.80
2018-10-18T19:18:22.239Z,14.80
2018-10-18T19:20:49.969Z,14.70
2018-10-18T19:23:17.743Z,14.50
2018-10-18T19:25:45.393Z,14.50
2018-10-18T19:28:13.098Z,14.40
2018-10-18T19:30:40.825Z,14.80
2018-10-18T19:33:08.525Z,14.90
2018-10-18T19:35:36.245Z,14.90
2018-10-18T19:38:04.126Z,14.90
2018-10-18T19:40:31.869Z,14.80
2018-10-18T19:42:59.567Z,14.80
2018-10-18T19:45:27.304Z,14.60
2018-10-18T19:47:55.037Z,14.80
2018-10-18T19:50:22.738Z,14.90
2018-10-18T19:52:50.640Z,14.90
2018-10-18T19:55:18.345Z,14.80
2018-10-18T19:57:46.096Z,14.80
2018-10-18T20:00:13.797Z,14.80
2018-10-18T20:02:41.517Z,14.80
2018-10-18T20:05:09.164Z,14.90
2018-10-18T20:07:36.966Z,14.80
2018-10-18T20:10:05.276Z,14.80
2018-10-18T20:12:32.990Z,14.80
2018-10-18T20:15:00.723Z,14.80
2018-10-18T20:17:28.472Z,14.70
2018-10-18T20:19:56.324Z,14.80
2018-10-18T20:22:24.020Z,14.80
2018-10-18T20:24:51.829Z,14.80
2018-10-18T20:27:19.471Z,14.70
2018-10-18T20:29:47.176Z,15.00
2018-10-18T20:32:14.897Z,15.00
2018-10-18T20:34:42.628Z,15.00
2018-10-18T20:37:10.365Z,14.90
2018-10-18T20:39:38.090Z,15.00
2018-10-18T20:42:05.856Z,14.90
2018-10-18T20:44:33.574Z,14.80
2018-10-18T20:47:01.302Z,14.80
2018-10-18T20:49:29.040Z,14.90
2018-10-18T20:51:56.749Z,14.80
2018-10-18T20:54:24.469Z,14.40
2018-10-18T20:56:52.265Z,14.90
2018-10-18T20:59:19.937Z,14.40
2018-10-18T21:01:47.645Z,14.30
2018-10-18T21:04:15.329Z,14.30
2018-10-18T21:06:43.185Z,14.30
2018-10-18T21:09:11.735Z,14.40
2018-10-18T21:11:39.652Z,14.50
2018-10-18T21:14:07.365Z,14.30
2018-10-18T21:16:35.097Z,14.40
2018-10-18T21:19:03.233Z,14.40
2018-10-18T21:21:31.229Z,14.40
2018-10-18T21:23:58.969Z,14.40
2018-10-18T21:26:26.722Z,14.40
2018-10-18T21:28:54.449Z,14.20
2018-10-18T21:31:22.133Z,14.20
2018-10-18T21:33:49.897Z,14.10
2018-10-18T21:36:17.620Z,13.80
2018-10-18T21:38:45.375Z,13.90
2018-10-18T21:41:13.138Z,14.50
2018-10-18T21:43:40.814Z,13.90
2018-10-18T21:46:08.497Z,14.20
2018-10-18T21:48:36.533Z,13.90
2018-10-18T21:51:04.537Z,13.90
2018-10-18T21:53:32.227Z,14.30
2018-10-18T21:56:00.225Z,14.20
2018-10-18T21:58:27.958Z,14.30
2018-10-18T22:00:55.673Z,14.10
2018-10-18T22:03:23.377Z,13.80
2018-10-18T22:05:51.089Z,13.90
2018-10-18T22:08:18.797Z,13.90
2018-10-18T22:10:46.492Z,13.90
2018-10-18T22:13:14.206Z,13.90
2018-10-18T22:15:41.986Z,14.30
2018-10-18T22:18:09.702Z,14.40
2018-10-18T22:20:37.417Z,14.00
2018-10-18T22:23:05.326Z,14.20
2018-10-18T22:25:33.049Z,14.20
2018-10-18T22:28:01.108Z,14.30
2018-10-18T22:30:28.821Z,14.00
2018-10-18T22:32:56.543Z,13.80
2018-10-18T22:35:24.241Z,13.80
2018-10-18T22:37:51.948Z,13.80
2018-10-18T22:40:19.646Z,13.70
2018-10-18T22:42:47.368Z,13.90
2018-10-18T22:45:15.119Z,13.80
2018-10-18T22:47:42.858Z,13.70
2018-10-18T22:50:10.599Z,13.80
2018-10-18T22:52:38.352Z,13.80
2018-10-18T22:55:06.200Z,13.50
2018-10-18T22:57:33.971Z,13.80
2018-10-18T23:00:01.680Z,13.60
2018-10-18T23:02:29.407Z,13.90
2018-10-18T23:04:57.159Z,13.90
2018-10-18T23:07:24.843Z,13.80
2018-10-18T23:09:52.601Z,13.80
2018-10-18T23:12:20.312Z,13.70
2018-10-18T23:14:48.037Z,13.70
2018-10-18T23:17:15.817Z,13.90
2018-10-18T23:19:43.479Z,13.80
2018-10-18T23:22:11.180Z,13.90
2018-10-18T23:24:39.269Z,13.30
2018-10-18T23:27:07.907Z,13.80
2018-10-18T23:29:36.398Z,13.80
2018-10-18T23:32:04.172Z,13.80
2018-10-18T23:34:31.928Z,13.70
2018-10-18T23:37:00.017Z,13.30
2018-10-18T23:39:28.097Z,13.30
2018-10-18T23:41:55.790Z,13.90
2018-10-18T23:44:23.496Z,13.30
2018-10-18T23:46:51.190Z,13.40
2018-10-18T23:49:18.913Z,13.50
2018-10-18T23:51:46.630Z,13.50
2018-10-18T23:54:14.417Z,13.40
2018-10-18T23:56:42.131Z,13.50
2018-10-18T23:59:09.905Z,13.50
